sensor_id;sensor_type;location;lat;lon;timestamp;P1;durP1;ratioP1;P2;durP2;ratioP2
69621;SDS011;56841;55.964;37.674;2023-07-13T00:00:38;2.88;;;1.00;;
69621;SDS011;56841;55.964;37.674;2023-07-13T00:03:04;2.70;;;1.15;;
69621;SDS011;56841;55.964;37.674;2023-07-13T00:05:30;4.30;;;1.52;;
69621;SDS011;56841;55.964;37.674;2023-07-13T00:07:57;2.28;;;1.23;;
69621;SDS011;56841;55.964;37.674;2023-07-13T00:10:23;2.00;;;0.90;;
69621;SDS011;56841;55.964;37.674;2023-07-13T00:12:49;2.90;;;1.50;;
69621;SDS011;56841;55.964;37.674;2023-07-13T00:15:17;2.70;;;1.58;;
69621;SDS011;56841;55.964;37.674;2023-07-13T00:17:49;3.50;;;1.52;;
69621;SDS011;56841;55.964;37.674;2023-07-13T00:20:17;1.88;;;1.02;;
69621;SDS011;56841;55.964;37.674;2023-07-13T00:22:43;2.22;;;1.20;;
69621;SDS011;56841;55.964;37.674;2023-07-13T00:25:12;2.40;;;1.13;;
69621;SDS011;56841;55.964;37.674;2023-07-13T00:27:38;3.33;;;1.40;;
69621;SDS011;56841;55.964;37.674;2023-07-13T00:30:04;3.08;;;1.55;;
69621;SDS011;56841;55.964;37.674;2023-07-13T00:32:31;4.88;;;1.55;;
69621;SDS011;56841;55.964;37.674;2023-07-13T00:34:57;3.00;;;1.30;;
69621;SDS011;56841;55.964;37.674;2023-07-13T00:37:25;2.28;;;1.33;;
69621;SDS011;56841;55.964;37.674;2023-07-13T00:39:51;3.58;;;1.60;;
69621;SDS011;56841;55.964;37.674;2023-07-13T00:42:17;4.47;;;1.75;;
69621;SDS011;56841;55.964;37.674;2023-07-13T00:45:00;2.60;;;1.52;;
69621;SDS011;56841;55.964;37.674;2023-07-13T00:47:31;3.95;;;1.75;;
69621;SDS011;56841;55.964;37.674;2023-07-13T00:49:57;3.80;;;1.65;;
69621;SDS011;56841;55.964;37.674;2023-07-13T00:52:24;4.88;;;1.77;;
69621;SDS011;56841;55.964;37.674;2023-07-13T00:54:50;3.17;;;1.27;;
69621;SDS011;56841;55.964;37.674;2023-07-13T00:57:16;3.20;;;1.40;;
69621;SDS011;56841;55.964;37.674;2023-07-13T00:59:48;3.95;;;1.75;;
69621;SDS011;56841;55.964;37.674;2023-07-13T01:02:16;2.65;;;1.35;;
69621;SDS011;56841;55.964;37.674;2023-07-13T01:04:43;2.40;;;1.45;;
69621;SDS011;56841;55.964;37.674;2023-07-13T01:07:10;3.42;;;1.70;;
69621;SDS011;56841;55.964;37.674;2023-07-13T01:09:37;3.63;;;1.38;;
69621;SDS011;56841;55.964;37.674;2023-07-13T01:12:03;3.45;;;1.60;;
69621;SDS011;56841;55.964;37.674;2023-07-13T01:14:30;2.75;;;1.42;;
69621;SDS011;56841;55.964;37.674;2023-07-13T01:16:55;3.50;;;1.60;;
69621;SDS011;56841;55.964;37.674;2023-07-13T01:21:55;3.35;;;1.50;;
69621;SDS011;56841;55.964;37.674;2023-07-13T01:24:20;6.72;;;1.75;;
69621;SDS011;56841;55.964;37.674;2023-07-13T01:26:48;3.13;;;1.75;;
69621;SDS011;56841;55.964;37.674;2023-07-13T01:29:14;3.15;;;1.40;;
69621;SDS011;56841;55.964;37.674;2023-07-13T01:31:41;5.43;;;2.00;;
69621;SDS011;56841;55.964;37.674;2023-07-13T01:34:06;3.15;;;1.40;;
69621;SDS011;56841;55.964;37.674;2023-07-13T01:36:33;2.90;;;1.45;;
69621;SDS011;56841;55.964;37.674;2023-07-13T01:38:59;2.75;;;1.45;;
69621;SDS011;56841;55.964;37.674;2023-07-13T01:41:24;6.43;;;1.90;;
69621;SDS011;56841;55.964;37.674;2023-07-13T01:43:52;3.53;;;1.88;;
69621;SDS011;56841;55.964;37.674;2023-07-13T01:46:18;2.75;;;1.40;;
69621;SDS011;56841;55.964;37.674;2023-07-13T01:48:44;3.03;;;1.45;;
69621;SDS011;56841;55.964;37.674;2023-07-13T01:51:10;3.67;;;1.73;;
69621;SDS011;56841;55.964;37.674;2023-07-13T01:53:36;4.53;;;1.73;;
69621;SDS011;56841;55.964;37.674;2023-07-13T01:56:02;4.32;;;1.75;;
69621;SDS011;56841;55.964;37.674;2023-07-13T01:58:27;3.38;;;1.67;;
69621;SDS011;56841;55.964;37.674;2023-07-13T02:00:54;4.40;;;1.85;;
69621;SDS011;56841;55.964;37.674;2023-07-13T02:03:20;5.63;;;1.90;;
69621;SDS011;56841;55.964;37.674;2023-07-13T02:05:46;3.53;;;1.60;;
69621;SDS011;56841;55.964;37.674;2023-07-13T02:08:12;4.30;;;2.20;;
69621;SDS011;56841;55.964;37.674;2023-07-13T02:10:38;3.38;;;1.70;;
69621;SDS011;56841;55.964;37.674;2023-07-13T02:13:05;4.45;;;2.05;;
69621;SDS011;56841;55.964;37.674;2023-07-13T02:15:31;3.17;;;1.42;;
69621;SDS011;56841;55.964;37.674;2023-07-13T02:17:58;4.20;;;1.98;;
69621;SDS011;56841;55.964;37.674;2023-07-13T02:20:43;3.60;;;1.80;;
69621;SDS011;56841;55.964;37.674;2023-07-13T02:23:10;8.70;;;2.60;;
69621;SDS011;56841;55.964;37.674;2023-07-13T02:25:36;3.60;;;1.85;;
69621;SDS011;56841;55.964;37.674;2023-07-13T02:28:02;4.57;;;2.00;;
69621;SDS011;56841;55.964;37.674;2023-07-13T02:30:29;3.83;;;1.70;;
69621;SDS011;56841;55.964;37.674;2023-07-13T02:32:56;4.88;;;2.08;;
69621;SDS011;56841;55.964;37.674;2023-07-13T02:35:22;5.43;;;2.30;;
69621;SDS011;56841;55.964;37.674;2023-07-13T02:37:48;5.32;;;2.08;;
69621;SDS011;56841;55.964;37.674;2023-07-13T02:40:14;5.47;;;2.45;;
69621;SDS011;56841;55.964;37.674;2023-07-13T02:42:40;6.00;;;2.95;;
69621;SDS011;56841;55.964;37.674;2023-07-13T02:45:07;4.43;;;1.50;;
69621;SDS011;56841;55.964;37.674;2023-07-13T02:47:34;5.18;;;2.28;;
69621;SDS011;56841;55.964;37.674;2023-07-13T02:50:00;3.33;;;1.90;;
69621;SDS011;56841;55.964;37.674;2023-07-13T02:52:26;5.10;;;1.85;;
69621;SDS011;56841;55.964;37.674;2023-07-13T02:54:52;5.07;;;1.90;;
69621;SDS011;56841;55.964;37.674;2023-07-13T02:57:18;4.57;;;1.70;;
69621;SDS011;56841;55.964;37.674;2023-07-13T02:59:44;3.00;;;1.40;;
69621;SDS011;56841;55.964;37.674;2023-07-13T03:02:10;3.35;;;1.90;;
69621;SDS011;56841;55.964;37.674;2023-07-13T03:04:36;4.55;;;2.05;;
69621;SDS011;56841;55.964;37.674;2023-07-13T03:07:02;3.20;;;1.75;;
69621;SDS011;56841;55.964;37.674;2023-07-13T03:09:34;3.80;;;1.95;;
69621;SDS011;56841;55.964;37.674;2023-07-13T03:12:02;3.33;;;1.85;;
69621;SDS011;56841;55.964;37.674;2023-07-13T03:14:30;4.18;;;2.30;;
69621;SDS011;56841;55.964;37.674;2023-07-13T03:16:58;5.95;;;2.40;;
69621;SDS011;56841;55.964;37.674;2023-07-13T03:19:27;2.75;;;1.50;;
69621;SDS011;56841;55.964;37.674;2023-07-13T03:21:55;5.07;;;2.00;;
69621;SDS011;56841;55.964;37.674;2023-07-13T03:24:20;3.50;;;2.05;;
69621;SDS011;56841;55.964;37.674;2023-07-13T03:26:51;3.53;;;1.90;;
69621;SDS011;56841;55.964;37.674;2023-07-13T03:29:17;4.00;;;1.65;;
69621;SDS011;56841;55.964;37.674;2023-07-13T03:31:43;3.60;;;1.73;;
69621;SDS011;56841;55.964;37.674;2023-07-13T03:34:09;2.88;;;1.67;;
69621;SDS011;56841;55.964;37.674;2023-07-13T03:36:36;4.32;;;2.10;;
69621;SDS011;56841;55.964;37.674;2023-07-13T03:39:05;6.45;;;1.90;;
69621;SDS011;56841;55.964;37.674;2023-07-13T03:41:44;3.95;;;1.80;;
69621;SDS011;56841;55.964;37.674;2023-07-13T03:44:12;3.83;;;2.08;;
69621;SDS011;56841;55.964;37.674;2023-07-13T03:46:37;3.33;;;1.73;;
69621;SDS011;56841;55.964;37.674;2023-07-13T03:49:04;3.97;;;2.00;;
69621;SDS011;56841;55.964;37.674;2023-07-13T03:51:32;3.40;;;1.67;;
69621;SDS011;56841;55.964;37.674;2023-07-13T03:53:59;3.70;;;2.17;;
69621;SDS011;56841;55.964;37.674;2023-07-13T03:56:24;3.78;;;1.92;;
69621;SDS011;56841;55.964;37.674;2023-07-13T03:58:51;4.45;;;1.90;;
69621;SDS011;56841;55.964;37.674;2023-07-13T04:01:19;4.22;;;1.80;;
69621;SDS011;56841;55.964;37.674;2023-07-13T04:03:47;6.30;;;1.83;;
69621;SDS011;56841;55.964;37.674;2023-07-13T04:06:15;2.53;;;1.40;;
69621;SDS011;56841;55.964;37.674;2023-07-13T04:08:50;4.00;;;1.75;;
69621;SDS011;56841;55.964;37.674;2023-07-13T04:11:21;4.57;;;1.88;;
69621;SDS011;56841;55.964;37.674;2023-07-13T04:13:48;6.13;;;1.73;;
69621;SDS011;56841;55.964;37.674;2023-07-13T04:16:15;3.08;;;1.55;;
69621;SDS011;56841;55.964;37.674;2023-07-13T04:18:42;2.95;;;1.73;;
69621;SDS011;56841;55.964;37.674;2023-07-13T04:21:08;3.58;;;1.85;;
69621;SDS011;56841;55.964;37.674;2023-07-13T04:23:35;3.20;;;1.40;;
69621;SDS011;56841;55.964;37.674;2023-07-13T04:26:01;2.42;;;1.35;;
69621;SDS011;56841;55.964;37.674;2023-07-13T04:28:27;4.78;;;1.88;;
69621;SDS011;56841;55.964;37.674;2023-07-13T04:30:53;5.60;;;2.03;;
69621;SDS011;56841;55.964;37.674;2023-07-13T04:33:19;3.28;;;1.67;;
69621;SDS011;56841;55.964;37.674;2023-07-13T04:35:48;4.03;;;1.35;;
69621;SDS011;56841;55.964;37.674;2023-07-13T04:38:15;2.65;;;1.27;;
69621;SDS011;56841;55.964;37.674;2023-07-13T04:40:44;3.10;;;1.80;;
69621;SDS011;56841;55.964;37.674;2023-07-13T04:43:10;3.17;;;1.83;;
69621;SDS011;56841;55.964;37.674;2023-07-13T04:45:36;3.65;;;1.50;;
69621;SDS011;56841;55.964;37.674;2023-07-13T04:48:03;4.10;;;1.85;;
69621;SDS011;56841;55.964;37.674;2023-07-13T04:50:28;4.75;;;1.63;;
69621;SDS011;56841;55.964;37.674;2023-07-13T04:52:54;5.03;;;2.53;;
69621;SDS011;56841;55.964;37.674;2023-07-13T04:55:20;6.35;;;2.60;;
69621;SDS011;56841;55.964;37.674;2023-07-13T04:57:46;4.13;;;1.73;;
69621;SDS011;56841;55.964;37.674;2023-07-13T05:00:12;3.38;;;1.50;;
69621;SDS011;56841;55.964;37.674;2023-07-13T05:02:43;5.72;;;2.20;;
69621;SDS011;56841;55.964;37.674;2023-07-13T05:05:11;4.32;;;2.17;;
69621;SDS011;56841;55.964;37.674;2023-07-13T05:07:37;4.20;;;2.38;;
69621;SDS011;56841;55.964;37.674;2023-07-13T05:10:03;3.80;;;2.17;;
69621;SDS011;56841;55.964;37.674;2023-07-13T05:12:30;5.53;;;2.70;;
69621;SDS011;56841;55.964;37.674;2023-07-13T05:14:56;3.28;;;1.80;;
69621;SDS011;56841;55.964;37.674;2023-07-13T05:17:22;4.22;;;2.17;;
69621;SDS011;56841;55.964;37.674;2023-07-13T05:19:48;4.40;;;1.88;;
69621;SDS011;56841;55.964;37.674;2023-07-13T05:22:13;5.00;;;2.65;;
69621;SDS011;56841;55.964;37.674;2023-07-13T05:24:39;6.25;;;2.20;;
69621;SDS011;56841;55.964;37.674;2023-07-13T05:27:05;3.33;;;2.00;;
69621;SDS011;56841;55.964;37.674;2023-07-13T05:29:31;4.20;;;1.88;;
69621;SDS011;56841;55.964;37.674;2023-07-13T05:31:56;5.22;;;2.47;;
69621;SDS011;56841;55.964;37.674;2023-07-13T05:34:22;4.85;;;2.15;;
69621;SDS011;56841;55.964;37.674;2023-07-13T05:36:48;3.70;;;1.80;;
69621;SDS011;56841;55.964;37.674;2023-07-13T05:39:15;3.45;;;1.60;;
69621;SDS011;56841;55.964;37.674;2023-07-13T05:41:41;4.78;;;2.03;;
69621;SDS011;56841;55.964;37.674;2023-07-13T05:44:07;4.50;;;2.30;;
69621;SDS011;56841;55.964;37.674;2023-07-13T05:46:33;3.53;;;1.90;;
69621;SDS011;56841;55.964;37.674;2023-07-13T05:48:59;3.33;;;1.77;;
69621;SDS011;56841;55.964;37.674;2023-07-13T05:51:25;3.47;;;2.08;;
69621;SDS011;56841;55.964;37.674;2023-07-13T05:53:50;4.38;;;2.13;;
69621;SDS011;56841;55.964;37.674;2023-07-13T05:56:16;3.58;;;1.83;;
69621;SDS011;56841;55.964;37.674;2023-07-13T05:58:42;4.60;;;1.75;;
69621;SDS011;56841;55.964;37.674;2023-07-13T06:01:11;5.82;;;2.35;;
69621;SDS011;56841;55.964;37.674;2023-07-13T06:03:38;3.92;;;1.98;;
69621;SDS011;56841;55.964;37.674;2023-07-13T06:06:05;5.75;;;2.00;;
69621;SDS011;56841;55.964;37.674;2023-07-13T06:08:32;4.93;;;1.60;;
69621;SDS011;56841;55.964;37.674;2023-07-13T06:11:01;5.20;;;1.73;;
69621;SDS011;56841;55.964;37.674;2023-07-13T06:13:31;3.72;;;1.83;;
69621;SDS011;56841;55.964;37.674;2023-07-13T06:15:58;4.00;;;1.70;;
69621;SDS011;56841;55.964;37.674;2023-07-13T06:18:24;4.50;;;1.90;;
69621;SDS011;56841;55.964;37.674;2023-07-13T06:20:50;6.10;;;1.80;;
69621;SDS011;56841;55.964;37.674;2023-07-13T06:23:15;2.90;;;1.50;;
69621;SDS011;56841;55.964;37.674;2023-07-13T06:25:41;3.13;;;1.60;;
69621;SDS011;56841;55.964;37.674;2023-07-13T06:28:08;3.05;;;1.60;;
69621;SDS011;56841;55.964;37.674;2023-07-13T06:30:34;3.03;;;1.50;;
69621;SDS011;56841;55.964;37.674;2023-07-13T06:33:00;3.25;;;1.77;;
69621;SDS011;56841;55.964;37.674;2023-07-13T06:35:25;3.00;;;1.75;;
69621;SDS011;56841;55.964;37.674;2023-07-13T06:37:51;3.33;;;1.50;;
69621;SDS011;56841;55.964;37.674;2023-07-13T06:40:16;4.40;;;1.77;;
69621;SDS011;56841;55.964;37.674;2023-07-13T06:42:43;3.70;;;2.20;;
69621;SDS011;56841;55.964;37.674;2023-07-13T06:45:10;3.83;;;1.48;;
69621;SDS011;56841;55.964;37.674;2023-07-13T06:47:36;3.35;;;1.55;;
69621;SDS011;56841;55.964;37.674;2023-07-13T06:50:02;3.65;;;1.73;;
69621;SDS011;56841;55.964;37.674;2023-07-13T06:52:30;4.05;;;1.83;;
69621;SDS011;56841;55.964;37.674;2023-07-13T06:54:55;3.28;;;1.60;;
69621;SDS011;56841;55.964;37.674;2023-07-13T06:57:21;5.10;;;1.90;;
69621;SDS011;56841;55.964;37.674;2023-07-13T06:59:47;3.45;;;1.40;;
69621;SDS011;56841;55.964;37.674;2023-07-13T07:02:13;3.72;;;1.83;;
69621;SDS011;56841;55.964;37.674;2023-07-13T07:04:39;2.78;;;1.35;;
69621;SDS011;56841;55.964;37.674;2023-07-13T07:07:05;3.33;;;1.48;;
69621;SDS011;56841;55.964;37.674;2023-07-13T07:09:30;3.67;;;1.65;;
69621;SDS011;56841;55.964;37.674;2023-07-13T07:11:57;5.50;;;1.90;;
69621;SDS011;56841;55.964;37.674;2023-07-13T07:14:23;2.85;;;1.75;;
69621;SDS011;56841;55.964;37.674;2023-07-13T07:16:49;5.45;;;2.20;;
69621;SDS011;56841;55.964;37.674;2023-07-13T07:19:15;3.47;;;1.20;;
69621;SDS011;56841;55.964;37.674;2023-07-13T07:21:41;3.05;;;1.55;;
69621;SDS011;56841;55.964;37.674;2023-07-13T07:24:07;4.60;;;1.58;;
69621;SDS011;56841;55.964;37.674;2023-07-13T07:26:33;4.57;;;1.70;;
69621;SDS011;56841;55.964;37.674;2023-07-13T07:28:59;3.50;;;1.42;;
69621;SDS011;56841;55.964;37.674;2023-07-13T07:31:24;2.53;;;1.33;;
69621;SDS011;56841;55.964;37.674;2023-07-13T07:33:50;3.95;;;1.50;;
69621;SDS011;56841;55.964;37.674;2023-07-13T07:36:16;4.75;;;1.63;;
69621;SDS011;56841;55.964;37.674;2023-07-13T07:38:42;4.13;;;1.70;;
69621;SDS011;56841;55.964;37.674;2023-07-13T07:41:09;2.67;;;1.40;;
69621;SDS011;56841;55.964;37.674;2023-07-13T07:43:35;3.78;;;1.60;;
69621;SDS011;56841;55.964;37.674;2023-07-13T07:46:02;5.30;;;2.20;;
69621;SDS011;56841;55.964;37.674;2023-07-13T07:48:28;3.97;;;2.28;;
69621;SDS011;56841;55.964;37.674;2023-07-13T07:50:55;3.63;;;1.92;;
69621;SDS011;56841;55.964;37.674;2023-07-13T07:53:20;4.57;;;2.17;;
69621;SDS011;56841;55.964;37.674;2023-07-13T07:55:46;3.30;;;1.63;;
69621;SDS011;56841;55.964;37.674;2023-07-13T07:58:13;4.47;;;1.90;;
69621;SDS011;56841;55.964;37.674;2023-07-13T08:00:39;5.75;;;2.28;;
69621;SDS011;56841;55.964;37.674;2023-07-13T08:03:05;5.43;;;2.38;;
69621;SDS011;56841;55.964;37.674;2023-07-13T08:05:31;4.07;;;1.60;;
69621;SDS011;56841;55.964;37.674;2023-07-13T08:07:57;5.38;;;2.20;;
69621;SDS011;56841;55.964;37.674;2023-07-13T08:10:23;4.28;;;2.17;;
69621;SDS011;56841;55.964;37.674;2023-07-13T08:12:48;10.52;;;2.00;;
69621;SDS011;56841;55.964;37.674;2023-07-13T08:15:15;3.83;;;2.17;;
69621;SDS011;56841;55.964;37.674;2023-07-13T08:17:42;4.10;;;2.03;;
69621;SDS011;56841;55.964;37.674;2023-07-13T08:20:08;6.63;;;2.92;;
69621;SDS011;56841;55.964;37.674;2023-07-13T08:22:34;3.40;;;1.80;;
69621;SDS011;56841;55.964;37.674;2023-07-13T08:25:01;4.50;;;2.00;;
69621;SDS011;56841;55.964;37.674;2023-07-13T08:27:30;3.80;;;1.88;;
69621;SDS011;56841;55.964;37.674;2023-07-13T08:29:56;5.70;;;2.53;;
69621;SDS011;56841;55.964;37.674;2023-07-13T08:32:22;3.90;;;1.83;;
69621;SDS011;56841;55.964;37.674;2023-07-13T08:34:49;2.67;;;1.52;;
69621;SDS011;56841;55.964;37.674;2023-07-13T08:37:15;4.25;;;2.00;;
69621;SDS011;56841;55.964;37.674;2023-07-13T08:39:42;4.07;;;1.88;;
69621;SDS011;56841;55.964;37.674;2023-07-13T08:42:18;4.65;;;2.63;;
69621;SDS011;56841;55.964;37.674;2023-07-13T08:47:34;4.50;;;2.38;;
69621;SDS011;56841;55.964;37.674;2023-07-13T08:50:03;4.13;;;2.10;;
69621;SDS011;56841;55.964;37.674;2023-07-13T08:52:35;5.53;;;2.20;;
69621;SDS011;56841;55.964;37.674;2023-07-13T08:55:14;3.88;;;1.70;;
69621;SDS011;56841;55.964;37.674;2023-07-13T08:57:43;3.80;;;2.03;;
69621;SDS011;56841;55.964;37.674;2023-07-13T09:00:13;5.75;;;2.05;;
69621;SDS011;56841;55.964;37.674;2023-07-13T09:02:42;3.67;;;1.70;;
69621;SDS011;56841;55.964;37.674;2023-07-13T09:10:46;3.78;;;2.15;;
69621;SDS011;56841;55.964;37.674;2023-07-13T09:15:59;6.65;;;2.95;;
69621;SDS011;56841;55.964;37.674;2023-07-13T09:18:38;5.32;;;2.35;;
69621;SDS011;56841;55.964;37.674;2023-07-13T09:21:09;4.80;;;2.17;;
69621;SDS011;56841;55.964;37.674;2023-07-13T09:23:42;5.18;;;2.30;;
69621;SDS011;56841;55.964;37.674;2023-07-13T09:26:19;4.40;;;2.17;;
69621;SDS011;56841;55.964;37.674;2023-07-13T09:28:49;3.45;;;1.67;;
69621;SDS011;56841;55.964;37.674;2023-07-13T09:31:20;5.05;;;1.70;;
69621;SDS011;56841;55.964;37.674;2023-07-13T09:39:12;3.08;;;1.65;;
69621;SDS011;56841;55.964;37.674;2023-07-13T09:44:28;3.70;;;1.13;;
69621;SDS011;56841;55.964;37.674;2023-07-13T09:46:56;4.20;;;1.55;;
69621;SDS011;56841;55.964;37.674;2023-07-13T09:49:24;4.60;;;1.80;;
69621;SDS011;56841;55.964;37.674;2023-07-13T09:52:00;3.05;;;1.42;;
69621;SDS011;56841;55.964;37.674;2023-07-13T09:54:29;4.43;;;1.42;;
69621;SDS011;56841;55.964;37.674;2023-07-13T09:57:00;3.72;;;1.77;;
69621;SDS011;56841;55.964;37.674;2023-07-13T09:59:28;4.57;;;1.67;;
69621;SDS011;56841;55.964;37.674;2023-07-13T10:05:02;2.85;;;2.03;;
69621;SDS011;56841;55.964;37.674;2023-07-13T10:07:31;3.25;;;1.73;;
69621;SDS011;56841;55.964;37.674;2023-07-13T10:09:58;2.90;;;1.75;;
69621;SDS011;56841;55.964;37.674;2023-07-13T10:12:30;3.67;;;1.90;;
69621;SDS011;56841;55.964;37.674;2023-07-13T10:15:02;4.85;;;1.88;;
69621;SDS011;56841;55.964;37.674;2023-07-13T10:17:32;5.97;;;2.63;;
69621;SDS011;56841;55.964;37.674;2023-07-13T10:19:59;4.55;;;2.35;;
69621;SDS011;56841;55.964;37.674;2023-07-13T10:22:35;4.18;;;2.28;;
69621;SDS011;56841;55.964;37.674;2023-07-13T10:25:19;6.95;;;3.13;;
69621;SDS011;56841;55.964;37.674;2023-07-13T10:27:51;4.57;;;2.35;;
69621;SDS011;56841;55.964;37.674;2023-07-13T10:30:21;4.35;;;2.40;;
69621;SDS011;56841;55.964;37.674;2023-07-13T10:32:50;6.88;;;2.85;;
69621;SDS011;56841;55.964;37.674;2023-07-13T10:35:18;7.38;;;3.13;;
69621;SDS011;56841;55.964;37.674;2023-07-13T10:37:50;4.57;;;2.42;;
69621;SDS011;56841;55.964;37.674;2023-07-13T10:40:24;5.55;;;2.15;;
69621;SDS011;56841;55.964;37.674;2023-07-13T10:42:56;4.88;;;2.55;;
69621;SDS011;56841;55.964;37.674;2023-07-13T10:45:25;5.90;;;3.05;;
69621;SDS011;56841;55.964;37.674;2023-07-13T10:47:54;5.75;;;2.58;;
69621;SDS011;56841;55.964;37.674;2023-07-13T10:50:25;7.55;;;2.33;;
69621;SDS011;56841;55.964;37.674;2023-07-13T10:52:54;4.03;;;2.15;;
69621;SDS011;56841;55.964;37.674;2023-07-13T11:03:37;5.57;;;2.50;;
69621;SDS011;56841;55.964;37.674;2023-07-13T11:08:56;7.22;;;2.10;;
69621;SDS011;56841;55.964;37.674;2023-07-13T11:18:50;7.85;;;2.30;;
69621;SDS011;56841;55.964;37.674;2023-07-13T11:21:22;5.35;;;2.70;;
69621;SDS011;56841;55.964;37.674;2023-07-13T11:23:52;5.38;;;2.63;;
69621;SDS011;56841;55.964;37.674;2023-07-13T11:31:42;6.30;;;3.42;;
69621;SDS011;56841;55.964;37.674;2023-07-13T11:34:18;5.85;;;3.03;;
69621;SDS011;56841;55.964;37.674;2023-07-13T11:36:54;6.00;;;2.92;;
69621;SDS011;56841;55.964;37.674;2023-07-13T11:39:24;4.95;;;2.53;;
69621;SDS011;56841;55.964;37.674;2023-07-13T11:42:02;6.20;;;2.75;;
69621;SDS011;56841;55.964;37.674;2023-07-13T11:44:32;5.88;;;3.40;;
69621;SDS011;56841;55.964;37.674;2023-07-13T11:47:00;7.43;;;3.03;;
69621;SDS011;56841;55.964;37.674;2023-07-13T11:49:45;7.57;;;2.92;;
69621;SDS011;56841;55.964;37.674;2023-07-13T11:52:16;9.27;;;3.40;;
69621;SDS011;56841;55.964;37.674;2023-07-13T11:54:51;6.38;;;2.47;;
69621;SDS011;56841;55.964;37.674;2023-07-13T12:00:09;6.85;;;3.38;;
69621;SDS011;56841;55.964;37.674;2023-07-13T12:02:39;16.95;;;7.40;;
69621;SDS011;56841;55.964;37.674;2023-07-13T12:05:10;11.32;;;5.38;;
69621;SDS011;56841;55.964;37.674;2023-07-13T12:07:39;8.70;;;4.45;;
69621;SDS011;56841;55.964;37.674;2023-07-13T12:12:37;3.97;;;2.40;;
69621;SDS011;56841;55.964;37.674;2023-07-13T12:15:06;7.97;;;3.83;;
69621;SDS011;56841;55.964;37.674;2023-07-13T12:17:33;5.32;;;2.42;;
69621;SDS011;56841;55.964;37.674;2023-07-13T12:20:00;9.00;;;4.55;;
69621;SDS011;56841;55.964;37.674;2023-07-13T12:22:36;16.60;;;7.43;;
69621;SDS011;56841;55.964;37.674;2023-07-13T12:25:02;7.30;;;3.53;;
69621;SDS011;56841;55.964;37.674;2023-07-13T12:27:30;4.82;;;2.85;;
69621;SDS011;56841;55.964;37.674;2023-07-13T12:29:59;7.05;;;3.50;;
69621;SDS011;56841;55.964;37.674;2023-07-13T12:32:32;6.15;;;3.22;;
69621;SDS011;56841;55.964;37.674;2023-07-13T12:35:31;8.88;;;3.40;;
69621;SDS011;56841;55.964;37.674;2023-07-13T12:37:51;5.13;;;2.67;;
69621;SDS011;56841;55.964;37.674;2023-07-13T12:40:21;8.82;;;4.32;;
69621;SDS011;56841;55.964;37.674;2023-07-13T12:42:52;11.35;;;3.85;;
69621;SDS011;56841;55.964;37.674;2023-07-13T12:45:22;5.18;;;2.88;;
69621;SDS011;56841;55.964;37.674;2023-07-13T12:48:24;4.00;;;2.65;;
69621;SDS011;56841;55.964;37.674;2023-07-13T12:50:45;6.95;;;2.78;;
69621;SDS011;56841;55.964;37.674;2023-07-13T12:53:14;6.53;;;3.00;;
69621;SDS011;56841;55.964;37.674;2023-07-13T12:55:45;8.00;;;3.58;;
69621;SDS011;56841;55.964;37.674;2023-07-13T12:58:19;7.28;;;3.55;;
69621;SDS011;56841;55.964;37.674;2023-07-13T13:00:54;9.27;;;3.15;;
69621;SDS011;56841;55.964;37.674;2023-07-13T13:03:30;8.18;;;4.13;;
69621;SDS011;56841;55.964;37.674;2023-07-13T13:06:05;11.57;;;5.28;;
69621;SDS011;56841;55.964;37.674;2023-07-13T13:08:53;9.57;;;4.40;;
69621;SDS011;56841;55.964;37.674;2023-07-13T13:11:22;12.07;;;5.38;;
69621;SDS011;56841;55.964;37.674;2023-07-13T13:13:49;11.85;;;4.53;;
69621;SDS011;56841;55.964;37.674;2023-07-13T13:16:18;11.10;;;5.20;;
69621;SDS011;56841;55.964;37.674;2023-07-13T13:18:59;12.32;;;5.03;;
69621;SDS011;56841;55.964;37.674;2023-07-13T13:21:35;11.85;;;5.57;;
69621;SDS011;56841;55.964;37.674;2023-07-13T13:24:01;8.98;;;4.78;;
69621;SDS011;56841;55.964;37.674;2023-07-13T13:26:27;10.27;;;5.00;;
69621;SDS011;56841;55.964;37.674;2023-07-13T13:28:52;11.80;;;5.25;;
69621;SDS011;56841;55.964;37.674;2023-07-13T13:31:19;14.65;;;6.70;;
69621;SDS011;56841;55.964;37.674;2023-07-13T13:33:45;8.43;;;4.10;;
69621;SDS011;56841;55.964;37.674;2023-07-13T13:36:13;22.70;;;9.27;;
69621;SDS011;56841;55.964;37.674;2023-07-13T13:38:41;14.40;;;6.18;;
69621;SDS011;56841;55.964;37.674;2023-07-13T13:41:09;9.80;;;4.40;;
69621;SDS011;56841;55.964;37.674;2023-07-13T13:43:36;16.15;;;7.13;;
69621;SDS011;56841;55.964;37.674;2023-07-13T13:46:02;12.80;;;5.40;;
69621;SDS011;56841;55.964;37.674;2023-07-13T13:48:40;12.75;;;6.15;;
69621;SDS011;56841;55.964;37.674;2023-07-13T13:51:12;10.60;;;4.47;;
69621;SDS011;56841;55.964;37.674;2023-07-13T13:53:49;12.20;;;5.10;;
69621;SDS011;56841;55.964;37.674;2023-07-13T13:56:15;6.65;;;2.83;;
69621;SDS011;56841;55.964;37.674;2023-07-13T13:58:43;7.03;;;3.35;;
69621;SDS011;56841;55.964;37.674;2023-07-13T14:01:13;9.38;;;5.15;;
69621;SDS011;56841;55.964;37.674;2023-07-13T14:03:42;8.93;;;4.30;;
69621;SDS011;56841;55.964;37.674;2023-07-13T14:06:12;11.70;;;4.35;;
69621;SDS011;56841;55.964;37.674;2023-07-13T14:08:39;12.45;;;5.15;;
69621;SDS011;56841;55.964;37.674;2023-07-13T14:11:05;4.35;;;2.42;;
69621;SDS011;56841;55.964;37.674;2023-07-13T14:13:53;10.90;;;5.53;;
69621;SDS011;56841;55.964;37.674;2023-07-13T14:16:21;9.73;;;4.40;;
69621;SDS011;56841;55.964;37.674;2023-07-13T14:18:53;8.85;;;2.80;;
69621;SDS011;56841;55.964;37.674;2023-07-13T14:21:22;5.13;;;2.78;;
69621;SDS011;56841;55.964;37.674;2023-07-13T14:23:48;7.28;;;3.22;;
69621;SDS011;56841;55.964;37.674;2023-07-13T14:26:20;5.47;;;2.92;;
69621;SDS011;56841;55.964;37.674;2023-07-13T14:28:48;5.45;;;3.22;;
69621;SDS011;56841;55.964;37.674;2023-07-13T14:33:46;7.05;;;3.17;;
69621;SDS011;56841;55.964;37.674;2023-07-13T14:38:41;4.68;;;2.80;;
69621;SDS011;56841;55.964;37.674;2023-07-13T14:41:08;5.32;;;2.88;;
69621;SDS011;56841;55.964;37.674;2023-07-13T14:43:33;5.70;;;2.85;;
69621;SDS011;56841;55.964;37.674;2023-07-13T14:46:00;7.50;;;4.07;;
69621;SDS011;56841;55.964;37.674;2023-07-13T14:48:25;6.72;;;3.30;;
69621;SDS011;56841;55.964;37.674;2023-07-13T14:50:55;6.88;;;3.85;;
69621;SDS011;56841;55.964;37.674;2023-07-13T14:53:24;11.10;;;5.07;;
69621;SDS011;56841;55.964;37.674;2023-07-13T14:55:52;8.80;;;3.78;;
69621;SDS011;56841;55.964;37.674;2023-07-13T14:58:18;25.17;;;10.35;;
69621;SDS011;56841;55.964;37.674;2023-07-13T15:00:44;11.43;;;3.83;;
69621;SDS011;56841;55.964;37.674;2023-07-13T15:03:29;8.45;;;3.55;;
69621;SDS011;56841;55.964;37.674;2023-07-13T15:05:55;7.18;;;3.28;;
69621;SDS011;56841;55.964;37.674;2023-07-13T15:08:21;7.82;;;3.00;;
69621;SDS011;56841;55.964;37.674;2023-07-13T15:10:46;9.85;;;4.40;;
69621;SDS011;56841;55.964;37.674;2023-07-13T15:13:16;6.82;;;3.70;;
69621;SDS011;56841;55.964;37.674;2023-07-13T15:15:44;13.57;;;4.82;;
69621;SDS011;56841;55.964;37.674;2023-07-13T15:18:12;15.98;;;5.72;;
69621;SDS011;56841;55.964;37.674;2023-07-13T15:20:43;7.57;;;3.97;;
69621;SDS011;56841;55.964;37.674;2023-07-13T15:23:13;7.32;;;4.13;;
69621;SDS011;56841;55.964;37.674;2023-07-13T15:25:41;9.35;;;4.55;;
69621;SDS011;56841;55.964;37.674;2023-07-13T15:28:09;6.32;;;3.50;;
69621;SDS011;56841;55.964;37.674;2023-07-13T15:30:46;8.80;;;4.38;;
69621;SDS011;56841;55.964;37.674;2023-07-13T15:33:20;10.15;;;3.80;;
69621;SDS011;56841;55.964;37.674;2023-07-13T15:35:49;11.60;;;5.00;;
69621;SDS011;56841;55.964;37.674;2023-07-13T15:38:20;11.07;;;5.85;;